Time;durP1;ratioP1;P1;durP2;ratioP2;P2;SDS_P1;SDS_P2;PMS_P1;PMS_P2;Temp;Humidity;BMP_temperature;BMP_pressure;BME280_temperature;BME280_humidity;BME280_pressure;Samples;Min_cycle;Max_cycle;Signal;HPM_P1;HPM_P2
2023/06/28 00:00:02;;;;;;;0.40;0.40;;;;;;;18.56;80.50;100893.25;5052537;28;20091;-62
2023/06/28 00:02:28;;;;;;;0.25;0.20;;;;;;;18.42;80.98;100885.16;5033539;28;20033;-63
2023/06/28 00:04:54;;;;;;;1.42;0.45;;;;;;;18.37;81.35;100893.78;5045583;28;20443;-64
2023/06/28 00:07:20;;;;;;;0.70;0.38;;;;;;;18.39;81.37;100899.63;5050422;28;20033;-65
2023/06/28 00:09:45;;;;;;;0.52;0.40;;;;;;;18.33;81.58;100896.50;5051575;28;20499;-66
2023/06/28 00:12:10;;;;;;;5.10;0.63;;;;;;;18.30;81.67;100899.28;5052254;28;20023;-62
2023/06/28 00:14:36;;;;;;;0.40;0.38;;;;;;;18.08;81.99;100903.34;5049677;28;20080;-63
2023/06/28 00:17:01;;;;;;;0.20;0.20;;;;;;;17.94;82.67;100907.66;5050228;28;20033;-63
2023/06/28 00:19:27;;;;;;;0.60;0.32;;;;;;;17.91;82.77;100894.84;5050143;28;20174;-64
2023/06/28 00:22:13;;;;;;;0.40;0.30;;;;;;;17.83;82.97;100898.78;5033438;28;20044;-63
2023/06/28 00:24:39;;;;;;;0.65;0.50;;;;;;;17.58;84.39;100898.13;4987582;28;20046;-69
2023/06/28 00:27:04;;;;;;;0.80;0.43;;;;;;;17.62;84.70;100896.16;4978684;28;20046;-63
2023/06/28 00:29:30;;;;;;;1.02;0.60;;;;;;;17.65;84.91;100900.06;4984655;28;20522;-62
2023/06/28 00:31:55;;;;;;;0.20;0.20;;;;;;;17.65;84.65;100910.97;4970117;28;20045;-63
2023/06/28 00:34:21;;;;;;;0.20;0.20;;;;;;;17.57;84.53;100903.97;4981193;28;20042;-64
2023/06/28 00:36:46;;;;;;;1.15;0.30;;;;;;;17.60;84.99;100909.41;4984423;28;20050;-63
2023/06/28 00:39:12;;;;;;;0.70;0.30;;;;;;;17.66;84.47;100917.94;4964034;28;20153;-60
2023/06/28 00:41:37;;;;;;;0.40;0.22;;;;;;;17.64;85.20;100910.19;4964206;28;20039;-63
2023/06/28 00:44:03;;;;;;;0.32;0.30;;;;;;;17.71;84.61;100923.00;4987598;28;20042;-62
2023/06/28 00:46:29;;;;;;;0.70;0.40;;;;;;;17.65;85.09;100909.00;4973816;28;20157;-62
2023/06/28 00:48:55;;;;;;;0.47;0.30;;;;;;;17.63;84.98;100916.03;4964536;28;20558;-63
2023/06/28 00:51:22;;;;;;;0.22;0.20;;;;;;;17.57;85.10;100910.22;5032393;22;20052;-65
2023/06/28 00:53:47;;;;;;;0.30;0.30;;;;;;;17.45;85.38;100910.63;5016445;28;20060;-63
2023/06/28 00:56:13;;;;;;;0.50;0.20;;;;;;;17.48;85.40;100901.66;5044216;28;20064;-62
2023/06/28 00:58:39;;;;;;;2.00;0.77;;;;;;;17.42;85.53;100913.34;5032877;28;20561;-66
2023/06/28 01:01:04;;;;;;;0.90;0.60;;;;;;;17.28;85.89;100906.00;5050407;28;20033;-68
2023/06/28 01:03:51;;;;;;;0.28;0.20;;;;;;;17.14;86.83;100914.97;5032341;28;20029;-63
2023/06/28 01:06:37;;;;;;;1.10;0.30;;;;;;;17.28;86.71;100916.13;4955283;28;20043;-64
2023/06/28 01:09:04;;;;;;;0.73;0.30;;;;;;;17.14;86.88;100914.19;4891547;29;20160;-63
2023/06/28 01:11:33;;;;;;;0.15;0.15;;;;;;;17.11;86.25;100904.88;4893952;29;20051;-63
2023/06/28 01:13:59;;;;;;;1.08;0.55;;;;;;;17.06;86.24;100912.66;4892637;29;20704;-65
2023/06/28 01:16:25;;;;;;;0.25;0.25;;;;;;;17.00;86.86;100914.22;4893992;29;20137;-63
2023/06/28 01:18:50;;;;;;;0.70;0.40;;;;;;;17.01;86.91;100910.34;4877662;29;20040;-62
2023/06/28 01:21:17;;;;;;;1.35;0.40;;;;;;;16.98;86.74;100922.78;4893239;29;20073;-62
2023/06/28 01:23:48;;;;;;;0.35;0.35;;;;;;;16.88;86.35;100907.25;4891992;29;20080;-62
2023/06/28 01:26:14;;;;;;;1.20;0.30;;;;;;;16.83;87.37;100923.19;4884613;29;20627;-64
2023/06/28 01:28:40;;;;;;;0.30;0.28;;;;;;;16.86;87.33;100920.47;4892208;29;20084;-64
2023/06/28 01:31:06;;;;;;;0.32;0.32;;;;;;;16.79;87.92;100914.25;4893090;29;20048;-63
2023/06/28 01:33:33;;;;;;;0.63;0.40;;;;;;;16.81;88.26;100917.34;4892833;29;20052;-68
2023/06/28 01:36:00;;;;;;;0.63;0.20;;;;;;;16.74;88.03;100925.53;4893706;29;20414;-63
2023/06/28 01:38:28;;;;;;;0.70;0.28;;;;;;;16.73;88.49;100921.25;4892744;29;20032;-63
2023/06/28 01:40:54;;;;;;;0.15;0.15;;;;;;;16.73;88.38;100915.81;4892945;29;20039;-65
2023/06/28 01:43:20;;;;;;;1.10;0.90;;;;;;;16.75;88.36;100916.97;4933868;28;20053;-65
2023/06/28 01:45:47;;;;;;;0.30;0.30;;;;;;;16.72;87.97;100914.25;4991669;28;20045;-64
2023/06/28 01:48:12;;;;;;;0.90;0.40;;;;;;;16.75;87.85;100913.47;5048359;28;20021;-64
2023/06/28 01:50:38;;;;;;;0.90;0.50;;;;;;;16.72;88.08;100909.59;5048938;28;20029;-66
2023/06/28 01:53:08;;;;;;;0.50;0.38;;;;;;;16.74;87.81;100929.00;5029524;28;20636;-65
2023/06/28 01:55:33;;;;;;;1.25;0.57;;;;;;;16.73;87.53;100932.91;5032679;28;20029;-64
2023/06/28 01:57:59;;;;;;;0.35;0.30;;;;;;;16.68;87.94;100932.53;5031278;28;20040;-65
2023/06/28 02:03:27;;;;;;;0.50;0.38;;;;;;;16.60;88.52;100930.97;5470171;22;20090;-68
2023/06/28 02:05:53;;;;;;;0.52;0.40;;;;;;;16.56;88.54;100932.91;4940450;28;20035;-66
2023/06/28 02:08:20;;;;;;;0.88;0.45;;;;;;;16.54;88.53;100929.78;4962750;28;20031;-65
2023/06/28 02:10:46;;;;;;;0.70;0.38;;;;;;;16.55;88.42;100931.38;4953942;28;20089;-65
2023/06/28 02:13:11;;;;;;;0.35;0.35;;;;;;;16.48;88.80;100925.88;4950048;28;20026;-66
2023/06/28 02:15:37;;;;;;;0.30;0.20;;;;;;;16.53;89.07;100922.81;4971869;28;22089;-65
2023/06/28 02:20:30;;;;;;;0.95;0.80;;;;;;;16.40;89.96;100927.81;4986705;28;20042;-58
2023/06/28 02:22:56;;;;;;;1.02;0.68;;;;;;;16.43;90.14;100927.06;4973683;28;20034;-57
2023/06/28 02:25:21;;;;;;;1.30;0.57;;;;;;;16.47;90.00;100919.69;4966298;28;20388;-55
2023/06/28 02:27:47;;;;;;;0.75;0.25;;;;;;;16.57;89.65;100920.88;4964836;28;20030;-56
2023/06/28 02:30:13;;;;;;;0.98;0.50;;;;;;;16.46;90.06;100917.31;4965229;28;20018;-58
2023/06/28 02:32:43;;;;;;;2.00;0.30;;;;;;;16.53;89.96;100909.97;4961522;28;20034;-57
2023/06/28 02:35:08;;;;;;;2.47;0.47;;;;;;;16.56;90.15;100920.09;4956904;28;20034;-52
2023/06/28 02:37:34;;;;;;;0.68;0.60;;;;;;;16.53;90.48;100920.84;4989025;28;20035;-55
2023/06/28 02:40:00;;;;;;;0.63;0.45;;;;;;;16.56;90.54;100925.53;4963655;28;20077;-57
2023/06/28 02:42:25;;;;;;;0.43;0.38;;;;;;;16.61;90.57;100924.34;4984092;28;20030;-57
2023/06/28 02:44:51;;;;;;;0.68;0.55;;;;;;;16.63;90.61;100919.31;4983325;28;20402;-52
2023/06/28 02:47:16;;;;;;;3.60;0.80;;;;;;;16.66;90.47;100921.25;4962357;28;20035;-55
2023/06/28 02:49:42;;;;;;;0.45;0.30;;;;;;;16.67;90.18;100920.88;4967680;28;20030;-57
2023/06/28 02:52:08;;;;;;;1.05;0.60;;;;;;;16.67;90.99;100925.50;4965149;28;20052;-57
2023/06/28 02:54:33;;;;;;;0.43;0.40;;;;;;;16.67;90.85;100925.50;4969597;28;20109;-57
2023/06/28 02:56:59;;;;;;;1.27;0.75;;;;;;;16.58;91.06;100925.13;4967913;28;20062;-54
2023/06/28 02:59:40;;;;;;;2.85;0.68;;;;;;;16.59;91.77;100929.44;4967652;28;20030;-55
2023/06/28 03:02:05;;;;;;;0.25;0.25;;;;;;;16.74;91.88;100928.25;4969672;28;20061;-55
2023/06/28 03:04:32;;;;;;;0.57;0.35;;;;;;;16.82;91.50;100927.09;4962323;28;20489;-54
2023/06/28 03:07:00;;;;;;;0.68;0.50;;;;;;;16.89;91.56;100940.69;4973893;28;20505;-55
2023/06/28 03:09:25;;;;;;;4.40;0.82;;;;;;;16.96;91.90;100937.94;4975345;28;20026;-57
2023/06/28 03:11:51;;;;;;;0.60;0.60;;;;;;;17.05;91.72;100932.91;4975192;28;20473;-56
2023/06/28 03:14:16;;;;;;;0.60;0.57;;;;;;;17.19;91.69;100938.28;4972119;28;20030;-57
2023/06/28 03:16:42;;;;;;;2.75;0.73;;;;;;;17.24;91.46;100916.13;4969854;28;20066;-56
2023/06/28 03:19:08;;;;;;;0.50;0.50;;;;;;;17.32;91.38;100928.56;4955811;28;20031;-56
2023/06/28 03:21:34;;;;;;;1.00;0.57;;;;;;;17.35;91.27;100922.31;4974793;28;20452;-56
2023/06/28 03:24:00;;;;;;;0.60;0.50;;;;;;;17.41;90.99;100926.19;4970352;28;20022;-54
2023/06/28 03:26:29;;;;;;;0.88;0.63;;;;;;;17.43;91.66;100925.78;4973457;28;20458;-57
2023/06/28 03:28:57;;;;;;;2.38;0.70;;;;;;;17.44;91.76;100921.91;4984686;28;20484;-55
2023/06/28 03:31:24;;;;;;;0.90;0.68;;;;;;;17.46;91.25;100927.75;4970814;28;20381;-57
2023/06/28 03:33:49;;;;;;;0.95;0.60;;;;;;;17.55;90.97;100934.34;4970821;28;20121;-54
2023/06/28 03:36:15;;;;;;;0.88;0.75;;;;;;;17.57;90.78;100920.31;4954916;28;20042;-56
2023/06/28 03:38:40;;;;;;;0.65;0.60;;;;;;;17.55;90.91;100928.91;4960059;28;20037;-57
2023/06/28 03:43:49;;;;;;;1.58;0.77;;;;;;;17.65;90.90;100922.59;5174890;23;20440;-57
2023/06/28 03:46:15;;;;;;;0.63;0.55;;;;;;;17.67;90.88;100924.97;4966312;28;20034;-57
2023/06/28 03:48:40;;;;;;;0.80;0.52;;;;;;;17.72;90.27;100914.44;4953673;28;20523;-57
2023/06/28 03:51:06;;;;;;;1.23;1.00;;;;;;;17.67;90.85;100920.25;4947460;28;21175;-54
2023/06/28 03:53:31;;;;;;;1.85;0.88;;;;;;;17.69;91.48;100919.88;4949381;28;20103;-51
2023/06/28 03:58:30;;;;;;;1.58;0.82;;;;;;;17.81;91.18;100917.47;4956059;28;20055;-58
2023/06/28 04:00:56;;;;;;;1.27;0.70;;;;;;;17.84;90.96;100919.44;4977745;28;20039;-59
2023/06/28 04:03:21;;;;;;;1.17;0.88;;;;;;;17.91;90.95;100921.31;4972502;28;20022;-59
2023/06/28 04:05:47;;;;;;;1.60;1.00;;;;;;;17.95;90.78;100917.41;4956787;28;20405;-59
2023/06/28 04:08:12;;;;;;;1.40;0.93;;;;;;;17.95;90.93;100925.59;4977908;28;20039;-59
2023/06/28 04:10:38;;;;;;;2.15;0.63;;;;;;;18.11;90.46;100922.38;4972256;28;20121;-59
2023/06/28 04:13:04;;;;;;;3.97;0.60;;;;;;;18.15;90.90;100920.41;4968966;28;20130;-58
2023/06/28 04:15:30;;;;;;;2.03;0.95;;;;;;;18.30;90.23;100923.81;4963654;28;20034;-57
2023/06/28 04:17:55;;;;;;;1.50;1.25;;;;;;;18.31;90.36;100919.94;4965167;28;20118;-59
2023/06/28 04:20:21;;;;;;;1.88;0.85;;;;;;;18.34;90.55;100919.13;4971647;28;20074;-57
2023/06/28 04:23:07;;;;;;;1.95;0.70;;;;;;;18.37;90.66;100923.78;4956067;28;20026;-58
2023/06/28 04:25:32;;;;;;;0.98;0.80;;;;;;;18.53;89.34;100916.66;4888702;29;20052;-58
2023/06/28 04:27:58;;;;;;;3.30;0.90;;;;;;;18.44;90.39;100919.09;4892496;29;20513;-59
2023/06/28 04:30:24;;;;;;;1.60;0.80;;;;;;;18.61;89.69;100918.16;4885188;29;20123;-59
2023/06/28 04:32:50;;;;;;;0.80;0.65;;;;;;;18.55;89.70;100913.53;4887599;29;20068;-59
2023/06/28 04:35:35;;;;;;;1.13;0.75;;;;;;;18.55;89.93;100927.16;4892842;29;20055;-59
2023/06/28 04:38:04;;;;;;;3.72;0.60;;;;;;;18.54;90.32;100923.66;4873651;29;20057;-59
2023/06/28 04:40:32;;;;;;;1.63;0.70;;;;;;;18.61;90.72;100920.09;4858103;29;20060;-58
2023/06/28 04:42:58;;;;;;;2.85;0.70;;;;;;;18.69;90.02;100918.88;4873674;29;20076;-58
2023/06/28 04:45:36;;;;;;;1.13;1.00;;;;;;;18.77;90.01;100921.16;4874885;29;20067;-61
2023/06/28 04:48:03;;;;;;;2.88;1.10;;;;;;;18.78;89.81;100921.91;4859388;29;20056;-57
2023/06/28 04:50:29;;;;;;;0.80;0.80;;;;;;;18.90;89.41;100918.69;4871858;29;20524;-59
2023/06/28 04:52:54;;;;;;;1.33;1.00;;;;;;;18.83;89.60;100919.50;4871917;29;20053;-57
2023/06/28 04:55:20;;;;;;;1.77;0.75;;;;;;;18.83;90.05;100924.22;4873013;29;20101;-58
2023/06/28 04:57:45;;;;;;;0.60;0.60;;;;;;;18.78;90.18;100927.38;4872096;29;20068;-58
2023/06/28 05:00:31;;;;;;;2.92;0.98;;;;;;;18.82;90.48;100923.44;4871877;29;20049;-58
2023/06/28 05:02:57;;;;;;;0.68;0.40;;;;;;;18.97;90.33;100929.53;4852566;29;20570;-57
2023/06/28 05:05:24;;;;;;;1.05;0.70;;;;;;;19.01;90.15;100930.25;4867386;29;20045;-59
2023/06/28 05:07:53;;;;;;;1.13;0.82;;;;;;;19.15;89.90;100926.63;4868098;29;20690;-59
2023/06/28 05:10:23;;;;;;;0.65;0.50;;;;;;;19.20;89.60;100920.72;4874269;29;20041;-59
2023/06/28 05:12:50;;;;;;;0.50;0.40;;;;;;;19.25;89.51;100931.97;4873964;29;20049;-58
2023/06/28 05:15:16;;;;;;;0.60;0.50;;;;;;;19.44;89.32;100923.22;4875714;29;20044;-58
2023/06/28 05:17:43;;;;;;;1.00;0.70;;;;;;;19.79;89.54;100920.03;4887816;29;20568;-58
2023/06/28 05:20:09;;;;;;;2.90;0.93;;;;;;;20.42;86.20;100923.84;4878484;29;20064;-57
2023/06/28 05:22:34;;;;;;;5.00;0.80;;;;;;;21.16;84.20;100930.03;4888061;29;20052;-56
2023/06/28 05:25:00;;;;;;;0.98;0.57;;;;;;;21.74;79.75;100928.53;4885597;29;20043;-59
2023/06/28 05:27:25;;;;;;;2.92;0.70;;;;;;;22.19;77.16;100926.75;4875971;29;20052;-59
2023/06/28 05:29:51;;;;;;;0.55;0.55;;;;;;;22.64;75.62;100938.66;4877308;29;20041;-59
2023/06/28 05:32:18;;;;;;;0.70;0.70;;;;;;;22.86;72.16;100939.66;4887277;29;20044;-60
2023/06/28 05:34:43;;;;;;;0.50;0.30;;;;;;;23.15;71.39;100940.47;4888814;29;20078;-58
2023/06/28 05:37:09;;;;;;;3.22;0.73;;;;;;;23.23;69.70;100944.56;4881452;29;20060;-60
2023/06/28 05:39:35;;;;;;;1.58;0.40;;;;;;;23.04;70.44;100939.97;4908978;28;20070;-59
2023/06/28 05:42:00;;;;;;;2.92;0.60;;;;;;;23.24;69.53;100945.34;4971291;28;20089;-59
2023/06/28 05:44:26;;;;;;;0.98;0.60;;;;;;;23.37;69.40;100943.44;4971039;28;20031;-59
2023/06/28 05:46:52;;;;;;;0.60;0.43;;;;;;;23.17;69.13;100948.28;4966343;28;20078;-60
2023/06/28 05:49:18;;;;;;;1.00;0.43;;;;;;;23.14;69.47;100947.16;4970220;28;20027;-59
2023/06/28 05:51:44;;;;;;;1.90;0.50;;;;;;;23.21;70.12;100946.19;4972200;28;20050;-59
2023/06/28 05:54:30;;;;;;;0.60;0.47;;;;;;;23.20;70.34;100953.69;4970793;28;20039;-59
2023/06/28 05:56:57;;;;;;;0.60;0.60;;;;;;;23.37;69.89;100948.16;4886381;29;20049;-58
2023/06/28 05:59:23;;;;;;;0.73;0.30;;;;;;;23.53;69.80;100945.34;4891652;29;20063;-58
2023/06/28 06:01:48;;;;;;;1.65;0.40;;;;;;;23.74;68.22;100950.25;4893141;29;20040;-58
2023/06/28 06:04:14;;;;;;;0.30;0.28;;;;;;;23.79;67.88;100950.47;4892603;29;20037;-59
2023/06/28 06:06:39;;;;;;;2.90;0.40;;;;;;;23.94;66.75;100943.34;4890632;29;20043;-58
2023/06/28 06:09:05;;;;;;;0.60;0.20;;;;;;;23.93;66.67;100947.31;4899545;29;20040;-60
2023/06/28 06:11:30;;;;;;;1.83;0.60;;;;;;;24.08;65.57;100953.19;4905954;29;20040;-56
2023/06/28 06:13:56;;;;;;;0.30;0.22;;;;;;;23.89;65.37;100951.38;4890649;29;20056;-59
2023/06/28 06:16:21;;;;;;;0.75;0.22;;;;;;;23.61;66.13;100952.97;4891517;29;20048;-58
2023/06/28 06:18:47;;;;;;;1.88;0.52;;;;;;;23.37;67.09;100956.41;4891583;29;20032;-58
2023/06/28 06:21:12;;;;;;;0.28;0.25;;;;;;;23.13;68.20;100944.88;4891402;29;20133;-57
2023/06/28 06:23:38;;;;;;;1.40;0.20;;;;;;;23.02;69.28;100956.13;4884126;29;20105;-58
2023/06/28 06:26:03;;;;;;;0.65;0.22;;;;;;;22.79;69.71;100958.28;4892139;29;20056;-57
2023/06/28 06:28:29;;;;;;;2.13;0.50;;;;;;;22.70;69.96;100953.41;4889275;29;20093;-58
2023/06/28 06:30:54;;;;;;;0.30;0.30;;;;;;;22.56;69.98;100952.94;4889243;29;20036;-57
2023/06/28 06:33:20;;;;;;;0.30;0.30;;;;;;;22.69;69.94;100951.84;4900562;28;20061;-58
2023/06/28 06:35:45;;;;;;;1.67;0.68;;;;;;;22.63;69.31;100956.31;4962577;28;20109;-58
2023/06/28 06:38:11;;;;;;;0.85;0.40;;;;;;;22.43;69.53;100950.13;4959294;28;20019;-57
2023/06/28 06:40:37;;;;;;;0.38;0.25;;;;;;;22.53;70.55;100959.31;4957558;28;20470;-56
2023/06/28 06:43:02;;;;;;;1.15;0.50;;;;;;;22.60;70.47;100957.19;4972622;28;20470;-58
2023/06/28 06:45:28;;;;;;;1.65;0.57;;;;;;;22.90;69.54;100967.81;4974752;28;20031;-59
2023/06/28 06:47:53;;;;;;;0.30;0.30;;;;;;;22.86;69.29;100966.38;4963565;28;20031;-57
2023/06/28 06:50:19;;;;;;;0.52;0.30;;;;;;;22.94;68.06;100976.72;4967918;28;20058;-57
2023/06/28 06:52:45;;;;;;;2.35;0.65;;;;;;;22.70;68.25;100974.63;4964233;28;20038;-60
2023/06/28 06:55:10;;;;;;;1.67;0.30;;;;;;;22.65;68.55;100975.88;4964478;28;20082;-59
2023/06/28 06:57:36;;;;;;;0.45;0.30;;;;;;;22.84;67.83;100977.78;4974982;28;20102;-60
2023/06/28 07:00:04;;;;;;;2.05;0.47;;;;;;;22.90;66.87;100972.56;4974943;28;20035;-55
2023/06/28 07:02:30;;;;;;;2.28;0.20;;;;;;;22.96;65.84;100987.28;4968215;28;20038;-57
2023/06/28 07:04:55;;;;;;;1.88;0.30;;;;;;;22.85;66.36;100984.03;4974568;28;20053;-56
2023/06/28 07:07:21;;;;;;;2.35;0.20;;;;;;;22.84;66.85;100983.25;4980944;28;20030;-58
2023/06/28 07:09:46;;;;;;;2.53;0.40;;;;;;;22.81;66.90;100986.88;4975257;28;20478;-59
2023/06/28 07:12:12;;;;;;;5.97;0.60;;;;;;;23.13;66.34;100997.84;4963450;28;20074;-56
2023/06/28 07:14:37;;;;;;;1.55;0.40;;;;;;;23.15;65.30;100995.44;4972425;28;20042;-56
2023/06/28 07:17:03;;;;;;;1.08;0.50;;;;;;;23.16;63.57;100997.00;4971328;28;20034;-58
2023/06/28 07:19:29;;;;;;;0.38;0.20;;;;;;;23.20;63.77;100996.88;4973253;28;20130;-59
2023/06/28 07:21:54;;;;;;;0.73;0.20;;;;;;;23.30;64.75;101002.13;4962239;28;22283;-59
2023/06/28 07:24:20;;;;;;;0.20;0.20;;;;;;;23.61;65.04;101007.22;4970787;28;20026;-58
2023/06/28 07:26:45;;;;;;;0.82;0.28;;;;;;;24.06;63.45;101000.41;4962613;28;20413;-56
2023/06/28 07:29:11;;;;;;;2.30;0.50;;;;;;;24.30;61.87;101002.88;4965064;28;20031;-60
2023/06/28 07:31:37;;;;;;;0.30;0.30;;;;;;;24.29;61.08;101009.59;4965664;28;20050;-60
2023/06/28 07:34:04;;;;;;;0.20;0.20;;;;;;;24.22;59.87;101010.56;4977945;28;20074;-60
2023/06/28 07:36:31;;;;;;;0.22;0.20;;;;;;;24.08;59.92;101013.75;4964940;28;20023;-58
2023/06/28 07:38:57;;;;;;;0.20;0.20;;;;;;;24.05;60.10;101012.66;4971430;28;20039;-58
2023/06/28 07:41:23;;;;;;;5.55;0.30;;;;;;;24.31;59.96;101007.19;4974134;28;20412;-58
2023/06/28 07:43:49;;;;;;;1.30;0.47;;;;;;;24.62;59.20;101003.41;4955384;28;20059;-59
2023/06/28 07:46:16;;;;;;;2.08;0.70;;;;;;;24.97;58.43;101010.56;4973760;28;20058;-59
2023/06/28 07:48:41;;;;;;;0.32;0.30;;;;;;;25.37;57.74;101019.06;4982691;28;20887;-58
2023/06/28 07:51:07;;;;;;;0.47;0.30;;;;;;;25.55;55.68;101013.72;4967247;28;20031;-59
2023/06/28 07:53:33;;;;;;;0.95;0.60;;;;;;;25.71;55.21;100998.94;4965155;28;20038;-58
2023/06/28 07:55:59;;;;;;;0.88;0.38;;;;;;;25.74;54.97;101012.66;4963820;28;20045;-57
2023/06/28 07:58:25;;;;;;;1.58;0.20;;;;;;;25.84;55.13;101014.22;4950869;28;20070;-56
2023/06/28 08:00:51;;;;;;;0.17;0.17;;;;;;;25.95;54.50;101011.09;4970397;28;20050;-57
2023/06/28 08:03:17;;;;;;;1.05;0.50;;;;;;;26.18;54.72;101010.63;4969611;28;20030;-59
2023/06/28 08:05:44;;;;;;;0.35;0.20;;;;;;;26.26;53.68;101009.13;4970170;28;20046;-59
2023/06/28 08:08:09;;;;;;;2.58;0.40;;;;;;;26.53;53.68;101019.53;4971922;28;20027;-59
2023/06/28 08:10:35;;;;;;;0.38;0.30;;;;;;;26.34;52.13;101015.16;4966479;28;20023;-58
2023/06/28 08:13:00;;;;;;;0.45;0.20;;;;;;;26.21;52.21;101009.72;4958911;28;20034;-59
2023/06/28 08:15:26;;;;;;;0.73;0.45;;;;;;;26.07;52.45;101010.28;4976060;28;20505;-57
2023/06/28 08:17:52;;;;;;;0.30;0.30;;;;;;;25.91;52.73;101007.69;4961085;28;20042;-59
2023/06/28 08:20:17;;;;;;;1.55;0.22;;;;;;;25.74;53.27;101003.59;4957768;28;20038;-57
2023/06/28 08:22:43;;;;;;;0.95;0.28;;;;;;;25.80;54.33;101001.78;4970551;28;20039;-60
2023/06/28 08:25:09;;;;;;;1.92;0.40;;;;;;;26.08;53.19;101005.50;4962838;28;20035;-59
2023/06/28 08:27:35;;;;;;;0.30;0.30;;;;;;;26.22;52.73;101007.72;4948707;28;20074;-59
2023/06/28 08:30:01;;;;;;;2.88;0.50;;;;;;;26.37;53.45;101009.47;4954344;28;20034;-59
2023/06/28 08:32:27;;;;;;;0.45;0.40;;;;;;;26.56;52.66;101007.53;4973621;28;20638;-59
2023/06/28 08:34:52;;;;;;;1.42;0.40;;;;;;;26.78;52.09;101000.75;4951989;28;20038;-59
2023/06/28 08:37:18;;;;;;;0.47;0.45;;;;;;;26.77;51.78;101007.50;4964154;28;20098;-59
2023/06/28 08:39:44;;;;;;;0.30;0.30;;;;;;;26.69;51.58;100997.91;4960042;28;20301;-59
2023/06/28 08:42:10;;;;;;;1.73;0.30;;;;;;;26.69;51.68;101000.69;4946595;28;20039;-59
2023/06/28 08:44:40;;;;;;;2.25;0.47;;;;;;;26.59;50.66;101010.19;4976055;28;20031;-60
2023/06/28 08:47:07;;;;;;;0.80;0.40;;;;;;;26.58;50.41;101003.09;4944410;28;20038;-59
2023/06/28 08:49:52;;;;;;;0.63;0.45;;;;;;;26.60;50.68;101005.41;4953157;28;20027;-59
2023/06/28 08:52:18;;;;;;;1.40;0.35;;;;;;;26.82;51.86;101006.13;4895724;29;20139;-59
2023/06/28 08:54:44;;;;;;;0.55;0.25;;;;;;;27.01;51.21;100998.63;4896975;29;20146;-60
2023/06/28 08:57:10;;;;;;;1.35;0.55;;;;;;;27.22;50.98;100995.72;4890980;29;20052;-59
2023/06/28 08:59:37;;;;;;;0.30;0.30;;;;;;;27.46;50.89;100995.91;4895214;29;20271;-59
2023/06/28 09:02:03;;;;;;;0.40;0.32;;;;;;;27.71;50.52;101000.34;4894529;29;20111;-59
2023/06/28 09:04:29;;;;;;;0.43;0.28;;;;;;;27.51;50.11;100998.06;4905530;29;20047;-59
2023/06/28 09:06:56;;;;;;;0.70;0.35;;;;;;;27.46;50.16;100988.38;4904345;29;20040;-59
2023/06/28 09:09:24;;;;;;;1.00;0.38;;;;;;;27.43;49.62;100992.06;4901268;29;20106;-60
2023/06/28 09:11:50;;;;;;;2.42;0.85;;;;;;;27.58;50.58;100998.50;4902916;29;20036;-58
2023/06/28 09:14:15;;;;;;;0.88;0.55;;;;;;;27.88;48.65;100996.78;4905693;29;20728;-59
2023/06/28 09:16:41;;;;;;;0.88;0.40;;;;;;;27.87;48.97;101002.78;4905196;29;20044;-59
2023/06/28 09:19:06;;;;;;;2.08;0.70;;;;;;;27.81;48.69;100997.13;4904592;29;20043;-59
2023/06/28 09:21:33;;;;;;;0.68;0.47;;;;;;;27.74;48.33;101000.19;4903687;29;20519;-58
2023/06/28 09:24:00;;;;;;;0.45;0.28;;;;;;;27.35;49.82;101001.16;4905703;29;20035;-59
2023/06/28 09:26:33;;;;;;;2.30;0.38;;;;;;;27.05;50.17;100999.25;4907247;29;20141;-59
2023/06/28 09:29:00;;;;;;;0.52;0.43;;;;;;;26.72;51.27;101010.88;4928886;28;20090;-59
2023/06/28 09:31:31;;;;;;;0.98;0.80;;;;;;;26.68;52.25;100993.63;4959749;28;20102;-58
2023/06/28 09:33:57;;;;;;;0.50;0.50;;;;;;;26.79;52.27;101007.81;4969877;28;20109;-59
2023/06/28 09:36:22;;;;;;;3.42;0.63;;;;;;;27.09;52.93;101000.66;4958258;28;20034;-59
2023/06/28 09:38:48;;;;;;;1.08;0.65;;;;;;;27.33;50.01;100992.53;4956785;28;20035;-59
2023/06/28 09:41:14;;;;;;;1.33;0.70;;;;;;;27.70;49.11;100996.81;4950814;28;20109;-59
2023/06/28 09:43:41;;;;;;;1.40;0.50;;;;;;;27.94;49.09;100994.16;4977648;28;20034;-60
2023/06/28 09:46:15;;;;;;;1.30;0.40;;;;;;;28.20;48.94;100989.78;4970395;28;20378;-59
2023/06/28 09:48:43;;;;;;;0.55;0.30;;;;;;;28.35;48.62;100991.44;4955212;28;20185;-60
2023/06/28 09:51:11;;;;;;;1.17;0.50;;;;;;;28.60;47.36;100993.03;4960912;28;20034;-59
2023/06/28 09:53:48;;;;;;;0.90;0.40;;;;;;;28.94;45.77;100986.94;4966561;28;20031;-59
2023/06/28 09:56:13;;;;;;;0.65;0.40;;;;;;;29.03;46.29;100991.69;4962390;28;20038;-60
2023/06/28 09:58:40;;;;;;;3.60;0.50;;;;;;;29.22;46.45;100990.31;4965676;23;20045;-56
2023/06/28 10:01:06;;;;;;;3.05;0.47;;;;;;;28.94;46.35;100989.72;4978306;28;20026;-51
2023/06/28 10:03:33;;;;;;;0.43;0.30;;;;;;;28.59;46.61;100993.50;4984329;28;20038;-58
2023/06/28 10:05:59;;;;;;;0.52;0.40;;;;;;;28.57;47.69;100993.19;4962289;28;20125;-58
2023/06/28 10:08:25;;;;;;;0.32;0.32;;;;;;;28.61;47.19;100999.34;4975861;28;20034;-59
2023/06/28 10:11:13;;;;;;;1.25;0.95;;;;;;;28.39;46.62;100996.78;4981820;28;20042;-57
2023/06/28 10:14:00;;;;;;;0.43;0.32;;;;;;;27.92;48.25;100999.38;4898075;29;20055;-57
2023/06/28 10:16:31;;;;;;;0.52;0.38;;;;;;;27.82;48.46;101000.63;4851696;29;20052;-62
2023/06/28 10:18:58;;;;;;;1.02;0.60;;;;;;;27.55;49.42;100999.44;4849512;29;20247;-58
2023/06/28 10:21:24;;;;;;;0.60;0.50;;;;;;;27.43;49.04;101000.38;4851865;29;20042;-55
2023/06/28 10:23:50;;;;;;;0.98;0.50;;;;;;;27.28;49.49;100996.66;4848841;29;20044;-57
2023/06/28 10:26:17;;;;;;;1.67;0.60;;;;;;;27.17;49.73;100990.81;4852422;29;20037;-53
2023/06/28 10:28:43;;;;;;;1.33;0.43;;;;;;;27.09;49.82;100997.88;4854117;29;20144;-54
2023/06/28 10:31:09;;;;;;;0.60;0.40;;;;;;;27.01;50.30;100996.63;4853463;29;20596;-57
2023/06/28 10:33:36;;;;;;;0.43;0.43;;;;;;;27.02;50.62;100989.88;4853120;29;20073;-58
2023/06/28 10:36:03;;;;;;;0.50;0.50;;;;;;;27.26;51.23;100993.56;4853526;29;20113;-57
2023/06/28 10:38:43;;;;;;;1.55;0.50;;;;;;;27.53;51.47;100984.53;4847123;29;20085;-58
2023/06/28 10:41:09;;;;;;;6.90;0.93;;;;;;;27.98;50.91;100981.69;4848007;29;20042;-54
2023/06/28 10:43:34;;;;;;;1.67;0.60;;;;;;;28.34;49.95;100989.88;4834538;29;20424;-60
2023/06/28 10:46:00;;;;;;;1.02;0.57;;;;;;;28.52;47.51;100991.78;4835782;29;20060;-59
2023/06/28 10:48:28;;;;;;;0.68;0.40;;;;;;;28.82;47.61;100987.97;4853448;29;20046;-54
2023/06/28 10:50:58;;;;;;;2.80;0.50;;;;;;;29.17;44.41;100993.78;4883024;29;20032;-59
2023/06/28 10:53:25;;;;;;;1.27;0.60;;;;;;;29.16;45.97;100995.78;4955106;28;20124;-60
2023/06/28 10:56:11;;;;;;;0.50;0.50;;;;;;;28.96;45.84;100995.56;4966963;28;20132;-53
2023/06/28 10:58:38;;;;;;;1.00;0.43;;;;;;;28.78;46.52;101003.25;4963370;28;20023;-60
2023/06/28 11:01:06;;;;;;;0.95;0.30;;;;;;;28.45;46.74;100994.94;4978207;28;20027;-58
2023/06/28 11:03:43;;;;;;;0.68;0.35;;;;;;;28.22;47.17;100993.63;4980313;28;20069;-58
2023/06/28 11:06:13;;;;;;;0.30;0.30;;;;;;;27.99;48.13;101008.16;4976190;28;20571;-58
2023/06/28 11:08:43;;;;;;;0.50;0.40;;;;;;;27.65;48.52;100994.66;4971845;28;20110;-59
2023/06/28 11:11:10;;;;;;;0.53;0.40;;;;;;;27.50;49.66;101002.06;4979072;28;20292;-60
2023/06/28 11:13:39;;;;;;;1.60;0.50;;;;;;;27.56;49.80;101000.22;4982080;28;20133;-57
2023/06/28 11:16:21;;;;;;;2.92;0.60;;;;;;;27.77;48.68;100993.72;4985676;28;20504;-60
2023/06/28 11:18:48;;;;;;;1.67;0.52;;;;;;;27.95;48.87;100992.94;4981617;28;20113;-60
2023/06/28 11:21:15;;;;;;;0.68;0.55;;;;;;;27.89;48.99;100990.03;4986562;28;20034;-56
2023/06/28 11:23:43;;;;;;;1.25;0.57;;;;;;;28.19;49.39;100985.47;4985932;28;20710;-58
2023/06/28 11:26:31;;;;;;;2.63;0.85;;;;;;;28.20;48.83;100993.31;4976646;28;20041;-59
2023/06/28 11:28:56;;;;;;;2.10;0.55;;;;;;;28.04;48.30;100982.63;4988474;28;20057;-57
2023/06/28 11:31:38;;;;;;;0.90;0.63;;;;;;;27.80;49.34;100981.72;4991783;28;20481;-57
2023/06/28 11:34:25;;;;;;;1.33;0.50;;;;;;;27.82;50.21;100989.53;4981375;28;20119;-55